createdAt,value
2023-04-28T00:00:22.886Z,83.05
2023-04-28T00:03:50.767Z,83.66
2023-04-28T00:07:14.914Z,85.13
2023-04-28T00:10:42.809Z,85.77
2023-04-28T00:14:11.648Z,85.72
2023-04-28T00:17:05.571Z,86.82
2023-04-28T00:20:33.512Z,88.56
2023-04-28T00:23:49.275Z,89.10
2023-04-28T00:27:14.131Z,88.54
2023-04-28T00:30:41.796Z,88.73
2023-04-28T00:34:09.679Z,93.64
2023-04-28T00:37:37.716Z,96.66
2023-04-28T00:40:26.912Z,94.65
2023-04-28T00:43:42.257Z,94.80
2023-04-28T00:46:39.729Z,97.54
2023-04-28T00:50:04.057Z,98.36
2023-04-28T00:53:32.265Z,98.90
2023-04-28T00:56:40.990Z,99.74
2023-04-28T01:00:08.829Z,100.00
2023-04-28T01:03:18.907Z,100.00
2023-04-28T01:06:27.876Z,100.00
2023-04-28T01:09:19.726Z,100.00
2023-04-28T01:12:08.060Z,100.00
2023-04-28T01:15:35.819Z,100.00
2023-04-28T01:18:40.598Z,100.00
2023-04-28T01:21:50.335Z,100.00
2023-04-28T01:25:14.271Z,100.00
2023-04-28T01:28:01.215Z,100.00
2023-04-28T01:31:29.404Z,100.00
2023-04-28T01:34:38.223Z,100.00
2023-04-28T01:37:38.264Z,100.00
2023-04-28T01:40:54.211Z,100.00
2023-04-28T01:44:10.231Z,100.00
2023-04-28T01:47:37.951Z,100.00
2023-04-28T01:51:06.001Z,100.00
2023-04-28T01:54:22.615Z,100.00
2023-04-28T01:57:50.285Z,100.00
2023-04-28T02:01:18.151Z,100.00
2023-04-28T02:04:22.176Z,100.00
2023-04-28T02:07:49.874Z,100.00
2023-04-28T02:11:17.697Z,100.00
2023-04-28T02:14:45.706Z,100.00
2023-04-28T02:18:13.521Z,100.00
2023-04-28T02:21:41.091Z,100.00
2023-04-28T02:25:08.799Z,100.00
2023-04-28T02:28:36.659Z,100.00
2023-04-28T02:32:04.496Z,100.00
2023-04-28T02:35:20.949Z,100.00
2023-04-28T02:38:48.601Z,100.00
2023-04-28T02:42:16.382Z,100.00
2023-04-28T02:45:41.191Z,100.00
2023-04-28T02:49:08.951Z,100.00
2023-04-28T02:52:17.952Z,100.00
2023-04-28T02:55:41.597Z,100.00
2023-04-28T02:59:09.536Z,100.00
2023-04-28T03:02:37.356Z,100.00
2023-04-28T03:05:42.943Z,100.00
2023-04-28T03:09:05.999Z,100.00
2023-04-28T03:12:33.920Z,100.00
2023-04-28T03:15:26.270Z,100.00
2023-04-28T03:18:50.129Z,100.00
2023-04-28T03:22:17.793Z,100.00
2023-04-28T03:25:43.052Z,100.00
2023-04-28T03:29:11.260Z,100.00
2023-04-28T03:32:22.870Z,100.00
2023-04-28T03:35:12.765Z,100.00
2023-04-28T03:38:40.753Z,100.00
2023-04-28T03:41:50.354Z,100.00
2023-04-28T03:45:21.190Z,100.00
2023-04-28T03:48:29.841Z,100.00
2023-04-28T03:51:57.546Z,100.00
2023-04-28T03:55:06.469Z,100.00
2023-04-28T03:58:22.000Z,100.00
2023-04-28T04:01:29.830Z,100.00
2023-04-28T04:04:58.198Z,100.00
2023-04-28T04:07:52.200Z,100.00
2023-04-28T04:11:20.284Z,100.00
2023-04-28T04:14:13.870Z,100.00
2023-04-28T04:17:24.275Z,100.00
2023-04-28T04:20:52.113Z,100.00
2023-04-28T04:24:19.693Z,99.22
2023-04-28T04:27:28.105Z,99.84
2023-04-28T04:30:55.762Z,100.00
2023-04-28T04:34:23.416Z,99.63
2023-04-28T04:37:51.117Z,98.67
2023-04-28T04:41:01.349Z,97.88
2023-04-28T04:44:29.525Z,97.36
2023-04-28T04:48:00.123Z,96.33
2023-04-28T04:50:48.345Z,96.51
2023-04-28T04:53:48.405Z,96.18
2023-04-28T04:56:25.751Z,96.10
2023-04-28T04:59:15.597Z,95.70
2023-04-28T05:02:25.783Z,95.00
2023-04-28T05:05:34.971Z,92.85
2023-04-28T05:08:43.589Z,91.93
2023-04-28T05:12:07.065Z,88.43
2023-04-28T05:15:06.865Z,88.52
2023-04-28T05:18:34.326Z,86.44
2023-04-28T05:22:02.284Z,84.93
2023-04-28T05:25:30.117Z,82.83
2023-04-28T05:28:21.946Z,83.48
2023-04-28T05:31:48.419Z,81.01
2023-04-28T05:35:16.523Z,79.65
2023-04-28T05:38:25.245Z,79.28
2023-04-28T05:41:53.262Z,77.85
2023-04-28T05:45:09.647Z,76.23
2023-04-28T05:48:33.673Z,74.92
2023-04-28T05:51:07.616Z,73.05
2023-04-28T05:54:23.011Z,73.56
2023-04-28T05:57:53.333Z,70.29
2023-04-28T06:00:52.784Z,70.28
2023-04-28T06:04:27.964Z,69.72
2023-04-28T06:07:37.786Z,67.95
2023-04-28T06:11:03.640Z,68.70
2023-04-28T06:14:11.578Z,67.72
2023-04-28T06:17:20.537Z,66.48
2023-04-28T06:20:36.409Z,67.41
2023-04-28T06:24:04.345Z,68.51
2023-04-28T06:27:14.098Z,66.77
2023-04-28T06:30:04.934Z,64.71
2023-04-28T06:33:13.876Z,65.05
2023-04-28T06:36:41.610Z,64.60
2023-04-28T06:40:09.393Z,62.95
2023-04-28T06:43:18.194Z,59.90
2023-04-28T06:46:27.544Z,60.95
2023-04-28T06:49:43.957Z,59.01
2023-04-28T06:52:56.281Z,58.23
2023-04-28T06:56:07.819Z,58.04
2023-04-28T06:59:05.902Z,54.63
2023-04-28T07:02:14.884Z,54.34
2023-04-28T07:05:32.225Z,55.55
2023-04-28T07:08:57.106Z,51.18
2023-04-28T07:12:02.180Z,52.83
2023-04-28T07:15:29.874Z,50.89
2023-04-28T07:18:54.964Z,49.20
2023-04-28T07:22:17.871Z,47.70
2023-04-28T07:25:45.520Z,47.53
2023-04-28T07:29:13.385Z,43.78
2023-04-28T07:32:41.236Z,42.69
2023-04-28T07:35:51.111Z,41.74
2023-04-28T07:38:28.257Z,41.07
2023-04-28T07:41:26.232Z,41.92
2023-04-28T07:44:16.301Z,42.28
2023-04-28T07:47:43.700Z,40.88
2023-04-28T07:51:11.610Z,40.08
2023-04-28T07:54:08.504Z,41.07
2023-04-28T07:57:20.139Z,40.46
2023-04-28T08:00:11.045Z,39.97
2023-04-28T08:03:32.415Z,39.78
2023-04-28T08:06:44.339Z,41.00
2023-04-28T08:10:12.145Z,43.30
2023-04-28T08:13:39.878Z,41.51
2023-04-28T08:17:07.940Z,41.09
2023-04-28T08:20:35.526Z,41.44
2023-04-28T08:23:59.707Z,42.34
2023-04-28T08:27:04.537Z,42.40
2023-04-28T08:30:32.609Z,39.44
2023-04-28T08:34:00.278Z,37.19
2023-04-28T08:37:05.648Z,40.09
2023-04-28T08:40:33.603Z,37.93
2023-04-28T08:43:46.245Z,37.42
2023-04-28T08:46:44.089Z,35.91
2023-04-28T08:49:15.100Z,37.06
2023-04-28T08:52:24.697Z,35.07
2023-04-28T08:55:49.858Z,37.49
2023-04-28T08:59:17.834Z,35.79
2023-04-28T09:02:45.720Z,35.35
2023-04-28T09:06:13.630Z,36.05
2023-04-28T09:09:41.503Z,36.34
2023-04-28T09:13:09.393Z,36.17
2023-04-28T09:16:37.246Z,34.08
2023-04-28T09:19:35.352Z,34.64
2023-04-28T09:23:03.270Z,34.50
2023-04-28T09:26:31.306Z,34.50
2023-04-28T09:29:40.107Z,34.24
2023-04-28T09:33:09.965Z,34.15
2023-04-28T09:36:17.644Z,34.19
2023-04-28T09:39:45.471Z,34.55
2023-04-28T09:43:21.309Z,35.14
2023-04-28T09:46:40.859Z,35.39
2023-04-28T09:50:08.719Z,34.19
2023-04-28T09:53:36.508Z,33.64
2023-04-28T09:57:04.641Z,33.44
2023-04-28T10:00:31.976Z,34.46
2023-04-28T10:03:59.795Z,34.64
2023-04-28T10:07:27.605Z,33.52
2023-04-28T10:10:55.561Z,33.16
2023-04-28T10:14:05.334Z,32.36
2023-04-28T10:17:30.374Z,31.86
2023-04-28T10:20:39.215Z,31.58
2023-04-28T10:24:07.105Z,32.90
2023-04-28T10:27:34.995Z,31.42
2023-04-28T10:31:02.727Z,30.99
2023-04-28T10:34:31.419Z,30.90
2023-04-28T10:37:39.405Z,31.04
2023-04-28T10:41:07.115Z,30.93
2023-04-28T10:44:35.041Z,31.10
2023-04-28T10:47:44.111Z,31.43
2023-04-28T10:51:00.018Z,31.43
2023-04-28T10:54:27.841Z,31.00
2023-04-28T10:57:36.750Z,31.93
2023-04-28T11:01:01.531Z,32.32
2023-04-28T11:04:14.074Z,31.24
2023-04-28T11:07:41.340Z,31.24
2023-04-28T11:11:09.158Z,30.75
2023-04-28T11:14:37.110Z,31.67
2023-04-28T11:18:04.836Z,31.35
2023-04-28T11:21:32.542Z,30.76
2023-04-28T11:24:41.384Z,31.14
2023-04-28T11:28:09.226Z,31.16
2023-04-28T11:31:03.407Z,31.14
2023-04-28T11:34:19.226Z,31.17
2023-04-28T11:37:47.193Z,30.79
2023-04-28T11:40:23.885Z,30.33
2023-04-28T11:43:47.413Z,29.92
2023-04-28T11:46:58.308Z,30.36
2023-04-28T11:50:26.180Z,30.62
2023-04-28T11:53:19.333Z,30.91
2023-04-28T11:56:09.257Z,31.29
2023-04-28T11:59:34.279Z,31.09
2023-04-28T12:02:24.690Z,30.01
2023-04-28T12:05:41.318Z,29.84
2023-04-28T12:09:09.180Z,30.65
2023-04-28T12:12:18.489Z,30.01
2023-04-28T12:15:07.832Z,30.77
2023-04-28T12:18:35.685Z,29.31
2023-04-28T12:21:44.538Z,29.06
2023-04-28T12:24:54.149Z,28.69
2023-04-28T12:28:21.838Z,28.56
2023-04-28T12:31:49.801Z,28.24
2023-04-28T12:34:55.060Z,27.69
2023-04-28T12:37:47.072Z,28.78
2023-04-28T12:40:55.047Z,27.91
2023-04-28T12:43:44.646Z,27.18
2023-04-28T12:47:12.527Z,27.48
2023-04-28T12:50:05.876Z,27.42
2023-04-28T12:53:16.137Z,28.19
2023-04-28T12:56:26.048Z,27.27
2023-04-28T12:59:17.070Z,26.52
2023-04-28T13:02:45.144Z,25.89
2023-04-28T13:05:51.114Z,24.59
2023-04-28T13:08:56.980Z,24.55
2023-04-28T13:12:20.597Z,24.76
2023-04-28T13:15:09.214Z,23.94
2023-04-28T13:18:32.580Z,23.92
2023-04-28T13:21:41.292Z,24.70
2023-04-28T13:25:09.169Z,24.32
2023-04-28T13:28:21.062Z,24.46
2023-04-28T13:31:46.232Z,24.43
2023-04-28T13:35:14.038Z,23.68
2023-04-28T13:38:22.365Z,23.59
2023-04-28T13:41:07.730Z,23.93
2023-04-28T13:44:15.980Z,23.29
2023-04-28T13:47:25.736Z,22.36
2023-04-28T13:50:34.385Z,22.64
2023-04-28T13:53:42.641Z,21.92
2023-04-28T13:57:08.050Z,21.90
2023-04-28T13:59:57.884Z,22.22
2023-04-28T14:02:35.047Z,22.95
2023-04-28T14:05:42.121Z,21.73
2023-04-28T14:08:43.673Z,21.68
2023-04-28T14:11:32.938Z,21.65
2023-04-28T14:14:44.913Z,21.20
2023-04-28T14:17:55.353Z,20.54
2023-04-28T14:21:06.917Z,20.32
2023-04-28T14:24:24.133Z,20.26
2023-04-28T14:27:32.757Z,20.65
2023-04-28T14:30:41.473Z,21.22
2023-04-28T14:34:09.178Z,20.88
2023-04-28T14:37:46.215Z,20.42
2023-04-28T14:40:57.733Z,20.08
2023-04-28T14:44:25.391Z,19.88
2023-04-28T14:47:41.716Z,19.49
2023-04-28T14:50:46.094Z,19.28
2023-04-28T14:53:54.123Z,18.67
2023-04-28T14:57:02.359Z,18.75
2023-04-28T15:00:30.005Z,18.71
2023-04-28T15:03:57.960Z,18.45
2023-04-28T15:07:09.818Z,18.72
2023-04-28T15:09:55.848Z,19.15
2023-04-28T15:13:23.660Z,18.89
2023-04-28T15:16:33.321Z,19.07
2023-04-28T15:19:23.278Z,19.06
2023-04-28T15:22:39.726Z,19.00
2023-04-28T15:25:26.910Z,18.89
2023-04-28T15:28:37.255Z,18.82
2023-04-28T15:31:45.005Z,18.64
2023-04-28T15:35:12.666Z,18.50
2023-04-28T15:38:40.543Z,18.54
2023-04-28T15:41:48.986Z,18.30
2023-04-28T15:45:16.826Z,19.22
2023-04-28T15:48:27.093Z,20.04
2023-04-28T15:51:55.109Z,20.25
2023-04-28T15:55:22.695Z,21.09
2023-04-28T15:58:51.835Z,21.21
2023-04-28T16:01:32.988Z,22.34
2023-04-28T16:05:00.781Z,23.55
2023-04-28T16:08:28.549Z,24.21
2023-04-28T16:11:17.487Z,24.42
2023-04-28T16:14:26.287Z,24.60
2023-04-28T16:17:50.573Z,24.85
2023-04-28T16:21:06.442Z,25.40
2023-04-28T16:24:22.274Z,25.57
2023-04-28T16:27:50.153Z,25.26
2023-04-28T16:31:18.081Z,25.43
2023-04-28T16:34:46.049Z,26.07
2023-04-28T16:38:14.001Z,27.37
2023-04-28T16:41:41.691Z,28.52
2023-04-28T16:45:09.475Z,29.53
2023-04-28T16:48:37.340Z,30.47
2023-04-28T16:52:05.020Z,31.58
2023-04-28T16:55:14.960Z,32.26
2023-04-28T16:58:39.676Z,32.27
2023-04-28T17:02:07.427Z,33.07
2023-04-28T17:05:35.305Z,33.11
2023-04-28T17:09:03.464Z,32.77
2023-04-28T17:12:31.149Z,32.96
2023-04-28T17:15:46.880Z,33.70
2023-04-28T17:19:14.551Z,34.33
2023-04-28T17:22:42.216Z,34.88
2023-04-28T17:25:34.012Z,35.20
2023-04-28T17:29:01.713Z,35.87
2023-04-28T17:32:29.706Z,36.79
2023-04-28T17:35:57.469Z,37.12
2023-04-28T17:39:25.447Z,37.86
2023-04-28T17:42:53.501Z,38.28
2023-04-28T17:46:21.162Z,38.67
2023-04-28T17:49:49.086Z,38.56
2023-04-28T17:53:16.888Z,39.35
2023-04-28T17:56:41.222Z,40.17
2023-04-28T17:59:50.982Z,40.29
2023-04-28T18:03:21.672Z,40.83
2023-04-28T18:06:49.224Z,40.89
2023-04-28T18:10:17.430Z,40.66
2023-04-28T18:13:45.322Z,41.32
2023-04-28T18:17:13.237Z,42.07
2023-04-28T18:20:41.186Z,42.35
2023-04-28T18:24:09.088Z,42.44
2023-04-28T18:27:37.334Z,42.54
2023-04-28T18:31:05.147Z,42.85
2023-04-28T18:34:32.794Z,42.71
2023-04-28T18:37:41.823Z,42.91
2023-04-28T18:40:57.420Z,42.76
2023-04-28T18:44:25.717Z,42.62
2023-04-28T18:47:15.491Z,42.72
2023-04-28T18:50:13.487Z,42.77
2023-04-28T18:53:41.424Z,42.68
2023-04-28T18:57:09.914Z,42.44
2023-04-28T19:00:38.189Z,42.50
2023-04-28T19:04:06.342Z,42.60
2023-04-28T19:07:33.958Z,42.76
2023-04-28T19:11:01.716Z,42.98
2023-04-28T19:14:10.925Z,43.83
2023-04-28T19:17:18.899Z,44.29
2023-04-28T19:20:46.965Z,44.10
2023-04-28T19:23:55.723Z,44.08
2023-04-28T19:27:08.149Z,44.34
2023-04-28T19:30:17.042Z,44.93
2023-04-28T19:33:45.128Z,45.24
2023-04-28T19:37:00.581Z,45.58
2023-04-28T19:40:12.248Z,45.70
2023-04-28T19:43:39.925Z,46.28
2023-04-28T19:47:08.014Z,47.02
2023-04-28T19:50:12.197Z,47.04
2023-04-28T19:53:27.982Z,47.47
2023-04-28T19:56:56.276Z,47.97
2023-04-28T19:59:53.244Z,47.86
2023-04-28T20:03:03.306Z,48.30
2023-04-28T20:06:11.977Z,48.35
2023-04-28T20:09:39.918Z,48.67
2023-04-28T20:13:07.733Z,49.46
2023-04-28T20:16:16.613Z,49.97
2023-04-28T20:19:16.439Z,50.19
2023-04-28T20:22:08.685Z,50.25
2023-04-28T20:25:34.620Z,50.34
2023-04-28T20:28:47.736Z,50.33
2023-04-28T20:31:56.399Z,51.05
2023-04-28T20:35:07.979Z,50.60
2023-04-28T20:38:16.895Z,51.50
2023-04-28T20:41:42.270Z,51.31
2023-04-28T20:45:10.161Z,50.74
2023-04-28T20:48:19.070Z,50.31
2023-04-28T20:51:42.662Z,51.92
2023-04-28T20:54:58.501Z,51.16
2023-04-28T20:58:22.247Z,51.38
2023-04-28T21:01:32.632Z,50.43
2023-04-28T21:05:00.324Z,49.60
2023-04-28T21:07:50.316Z,49.50
2023-04-28T21:11:13.874Z,50.98
2023-04-28T21:14:41.611Z,51.63
2023-04-28T21:18:09.464Z,50.58
2023-04-28T21:21:37.202Z,52.95
2023-04-28T21:25:04.972Z,50.97
2023-04-28T21:28:33.070Z,52.60
2023-04-28T21:31:45.222Z,53.09
2023-04-28T21:35:13.005Z,52.10
2023-04-28T21:38:41.122Z,51.00
2023-04-28T21:42:08.881Z,50.44
2023-04-28T21:45:36.675Z,50.50
2023-04-28T21:49:04.283Z,50.79
2023-04-28T21:52:20.003Z,50.26
2023-04-28T21:55:48.134Z,49.84
2023-04-28T21:58:56.727Z,49.50
2023-04-28T22:02:02.516Z,50.54
2023-04-28T22:05:30.217Z,51.85
2023-04-28T22:08:58.046Z,52.64
2023-04-28T22:12:25.827Z,51.75
2023-04-28T22:15:53.904Z,52.12
2023-04-28T22:19:21.528Z,51.14
2023-04-28T22:22:49.320Z,49.86
2023-04-28T22:26:17.183Z,50.48
2023-04-28T22:29:25.794Z,49.96
2023-04-28T22:32:53.671Z,49.74
2023-04-28T22:36:21.401Z,50.22
2023-04-28T22:39:49.599Z,51.14
2023-04-28T22:43:17.120Z,51.49
2023-04-28T22:46:44.860Z,51.96
2023-04-28T22:50:12.845Z,51.88
2023-04-28T22:53:40.536Z,54.29
2023-04-28T22:57:08.443Z,53.81
2023-04-28T23:00:36.271Z,54.49
2023-04-28T23:04:04.111Z,55.62
2023-04-28T23:07:32.042Z,56.01
2023-04-28T23:10:59.902Z,56.34
2023-04-28T23:14:08.715Z,56.40
2023-04-28T23:17:36.439Z,55.86
2023-04-28T23:20:48.690Z,58.13
2023-04-28T23:23:58.539Z,58.60
2023-04-28T23:27:07.249Z,58.18
2023-04-28T23:30:19.140Z,58.55
2023-04-28T23:33:46.952Z,59.47
2023-04-28T23:37:14.713Z,58.87
2023-04-28T23:40:42.687Z,59.25
2023-04-28T23:44:06.368Z,60.25
2023-04-28T23:47:15.126Z,62.07
2023-04-28T23:50:42.790Z,62.41
2023-04-28T23:53:40.424Z,61.79
2023-04-28T23:57:08.104Z,60.22
